sensor_id;sensor_type;location;lat;lon;timestamp;P1;durP1;ratioP1;P2;durP2;ratioP2
38805;SDS011;25635;51.146;17.162;2023-02-22T00:00:33;22.00;;;6.10;;
38805;SDS011;25635;51.146;17.162;2023-02-22T00:03:22;21.30;;;5.60;;
38805;SDS011;25635;51.146;17.162;2023-02-22T00:05:57;19.40;;;5.90;;
38805;SDS011;25635;51.146;17.162;2023-02-22T00:08:25;20.30;;;6.30;;
38805;SDS011;25635;51.146;17.162;2023-02-22T00:11:02;21.00;;;6.40;;
38805;SDS011;25635;51.146;17.162;2023-02-22T00:13:33;17.60;;;6.40;;
38805;SDS011;25635;51.146;17.162;2023-02-22T00:16:00;19.90;;;5.60;;
38805;SDS011;25635;51.146;17.162;2023-02-22T00:18:27;21.30;;;6.40;;
38805;SDS011;25635;51.146;17.162;2023-02-22T00:20:55;18.60;;;6.00;;
38805;SDS011;25635;51.146;17.162;2023-02-22T00:23:25;15.50;;;5.80;;
38805;SDS011;25635;51.146;17.162;2023-02-22T00:25:53;16.60;;;6.40;;
38805;SDS011;25635;51.146;17.162;2023-02-22T00:28:20;18.80;;;5.60;;
38805;SDS011;25635;51.146;17.162;2023-02-22T00:30:49;18.10;;;6.40;;
38805;SDS011;25635;51.146;17.162;2023-02-22T00:33:15;18.30;;;6.60;;
38805;SDS011;25635;51.146;17.162;2023-02-22T00:35:42;18.40;;;6.60;;
38805;SDS011;25635;51.146;17.162;2023-02-22T00:38:14;20.70;;;6.70;;
38805;SDS011;25635;51.146;17.162;2023-02-22T00:40:42;21.30;;;6.60;;
38805;SDS011;25635;51.146;17.162;2023-02-22T00:43:09;15.70;;;6.50;;
38805;SDS011;25635;51.146;17.162;2023-02-22T00:45:36;15.70;;;6.00;;
38805;SDS011;25635;51.146;17.162;2023-02-22T00:48:03;22.20;;;6.30;;
38805;SDS011;25635;51.146;17.162;2023-02-22T00:50:31;20.10;;;6.80;;
38805;SDS011;25635;51.146;17.162;2023-02-22T00:52:58;16.80;;;5.40;;
38805;SDS011;25635;51.146;17.162;2023-02-22T00:55:27;15.00;;;5.30;;
38805;SDS011;25635;51.146;17.162;2023-02-22T00:57:58;15.90;;;5.60;;
38805;SDS011;25635;51.146;17.162;2023-02-22T01:00:27;16.60;;;5.70;;
38805;SDS011;25635;51.146;17.162;2023-02-22T01:02:56;18.60;;;5.80;;
38805;SDS011;25635;51.146;17.162;2023-02-22T01:05:26;17.70;;;5.90;;
38805;SDS011;25635;51.146;17.162;2023-02-22T01:07:55;19.20;;;6.00;;
38805;SDS011;25635;51.146;17.162;2023-02-22T01:10:23;18.90;;;5.50;;
38805;SDS011;25635;51.146;17.162;2023-02-22T01:12:51;17.10;;;6.40;;
38805;SDS011;25635;51.146;17.162;2023-02-22T01:15:18;17.00;;;5.80;;
38805;SDS011;25635;51.146;17.162;2023-02-22T01:17:46;21.60;;;6.60;;
38805;SDS011;25635;51.146;17.162;2023-02-22T01:20:14;21.90;;;6.80;;
38805;SDS011;25635;51.146;17.162;2023-02-22T01:22:42;15.00;;;5.90;;
38805;SDS011;25635;51.146;17.162;2023-02-22T01:25:11;17.00;;;6.20;;
38805;SDS011;25635;51.146;17.162;2023-02-22T01:27:42;17.00;;;6.20;;
38805;SDS011;25635;51.146;17.162;2023-02-22T01:30:10;13.30;;;6.10;;
38805;SDS011;25635;51.146;17.162;2023-02-22T01:32:38;20.30;;;6.70;;
38805;SDS011;25635;51.146;17.162;2023-02-22T01:35:07;17.90;;;6.60;;
38805;SDS011;25635;51.146;17.162;2023-02-22T01:37:35;20.90;;;6.40;;
38805;SDS011;25635;51.146;17.162;2023-02-22T01:40:01;21.70;;;6.60;;
38805;SDS011;25635;51.146;17.162;2023-02-22T01:42:32;19.20;;;6.20;;
38805;SDS011;25635;51.146;17.162;2023-02-22T01:48:07;20.40;;;7.50;;
38805;SDS011;25635;51.146;17.162;2023-02-22T01:53:28;20.00;;;7.00;;
38805;SDS011;25635;51.146;17.162;2023-02-22T01:56:00;18.40;;;6.00;;
38805;SDS011;25635;51.146;17.162;2023-02-22T01:58:28;21.10;;;6.60;;
38805;SDS011;25635;51.146;17.162;2023-02-22T02:00:57;15.30;;;5.70;;
38805;SDS011;25635;51.146;17.162;2023-02-22T02:03:24;17.70;;;5.90;;
38805;SDS011;25635;51.146;17.162;2023-02-22T02:05:55;19.40;;;6.00;;
38805;SDS011;25635;51.146;17.162;2023-02-22T02:08:40;18.60;;;6.00;;
38805;SDS011;25635;51.146;17.162;2023-02-22T02:11:15;23.10;;;7.00;;
38805;SDS011;25635;51.146;17.162;2023-02-22T02:13:44;18.10;;;5.90;;
38805;SDS011;25635;51.146;17.162;2023-02-22T02:16:10;19.70;;;5.70;;
38805;SDS011;25635;51.146;17.162;2023-02-22T02:18:37;15.10;;;5.60;;
38805;SDS011;25635;51.146;17.162;2023-02-22T02:27:21;18.40;;;6.20;;
38805;SDS011;25635;51.146;17.162;2023-02-22T02:40:59;20.40;;;6.70;;
38805;SDS011;25635;51.146;17.162;2023-02-22T02:43:44;17.20;;;6.20;;
38805;SDS011;25635;51.146;17.162;2023-02-22T02:46:19;16.30;;;5.60;;
38805;SDS011;25635;51.146;17.162;2023-02-22T02:48:58;24.00;;;7.50;;
38805;SDS011;25635;51.146;17.162;2023-02-22T02:51:29;19.90;;;6.90;;
38805;SDS011;25635;51.146;17.162;2023-02-22T02:53:59;20.40;;;6.40;;
38805;SDS011;25635;51.146;17.162;2023-02-22T02:56:27;24.40;;;6.70;;
38805;SDS011;25635;51.146;17.162;2023-02-22T02:58:54;22.60;;;8.00;;
38805;SDS011;25635;51.146;17.162;2023-02-22T03:04:40;19.70;;;7.40;;
38805;SDS011;25635;51.146;17.162;2023-02-22T03:07:30;21.60;;;7.80;;
38805;SDS011;25635;51.146;17.162;2023-02-22T03:10:17;22.90;;;8.20;;
38805;SDS011;25635;51.146;17.162;2023-02-22T03:24:00;16.60;;;5.90;;
38805;SDS011;25635;51.146;17.162;2023-02-22T03:26:36;20.10;;;6.10;;
38805;SDS011;25635;51.146;17.162;2023-02-22T03:29:11;23.40;;;6.50;;
38805;SDS011;25635;51.146;17.162;2023-02-22T03:31:41;23.90;;;7.30;;
38805;SDS011;25635;51.146;17.162;2023-02-22T03:34:14;16.80;;;6.10;;
38805;SDS011;25635;51.146;17.162;2023-02-22T03:36:46;17.00;;;6.10;;
38805;SDS011;25635;51.146;17.162;2023-02-22T03:39:17;16.80;;;6.50;;
38805;SDS011;25635;51.146;17.162;2023-02-22T03:41:46;19.80;;;6.60;;
38805;SDS011;25635;51.146;17.162;2023-02-22T03:44:17;19.00;;;6.60;;
38805;SDS011;25635;51.146;17.162;2023-02-22T03:46:49;23.90;;;7.10;;
38805;SDS011;25635;51.146;17.162;2023-02-22T03:49:38;19.90;;;6.70;;
38805;SDS011;25635;51.146;17.162;2023-02-22T03:52:20;18.30;;;6.30;;
38805;SDS011;25635;51.146;17.162;2023-02-22T03:54:50;18.60;;;6.90;;
38805;SDS011;25635;51.146;17.162;2023-02-22T03:57:24;19.40;;;7.00;;
38805;SDS011;25635;51.146;17.162;2023-02-22T03:59:54;20.60;;;7.00;;
38805;SDS011;25635;51.146;17.162;2023-02-22T04:02:20;22.70;;;7.30;;
38805;SDS011;25635;51.146;17.162;2023-02-22T04:04:48;17.00;;;6.40;;
38805;SDS011;25635;51.146;17.162;2023-02-22T04:07:14;15.90;;;6.70;;
38805;SDS011;25635;51.146;17.162;2023-02-22T04:09:41;19.70;;;6.40;;
38805;SDS011;25635;51.146;17.162;2023-02-22T04:12:07;16.30;;;6.60;;
38805;SDS011;25635;51.146;17.162;2023-02-22T04:14:34;18.20;;;6.40;;
38805;SDS011;25635;51.146;17.162;2023-02-22T04:17:00;17.70;;;7.20;;
38805;SDS011;25635;51.146;17.162;2023-02-22T04:19:26;17.00;;;6.50;;
38805;SDS011;25635;51.146;17.162;2023-02-22T04:21:52;17.00;;;5.90;;
38805;SDS011;25635;51.146;17.162;2023-02-22T04:24:18;20.00;;;7.50;;
38805;SDS011;25635;51.146;17.162;2023-02-22T04:26:44;19.20;;;7.50;;
38805;SDS011;25635;51.146;17.162;2023-02-22T04:29:10;20.30;;;7.60;;
38805;SDS011;25635;51.146;17.162;2023-02-22T04:31:36;17.70;;;7.20;;
38805;SDS011;25635;51.146;17.162;2023-02-22T04:34:03;19.60;;;7.60;;
38805;SDS011;25635;51.146;17.162;2023-02-22T04:36:29;18.90;;;7.30;;
38805;SDS011;25635;51.146;17.162;2023-02-22T04:38:58;19.60;;;7.20;;
38805;SDS011;25635;51.146;17.162;2023-02-22T04:41:24;19.40;;;7.30;;
38805;SDS011;25635;51.146;17.162;2023-02-22T04:43:51;17.60;;;6.90;;
38805;SDS011;25635;51.146;17.162;2023-02-22T04:46:17;16.30;;;7.20;;
38805;SDS011;25635;51.146;17.162;2023-02-22T04:48:44;20.00;;;6.90;;
38805;SDS011;25635;51.146;17.162;2023-02-22T04:51:10;18.50;;;7.20;;
38805;SDS011;25635;51.146;17.162;2023-02-22T04:53:36;22.00;;;7.30;;
38805;SDS011;25635;51.146;17.162;2023-02-22T04:56:02;20.40;;;7.60;;
38805;SDS011;25635;51.146;17.162;2023-02-22T04:58:28;18.60;;;7.00;;
38805;SDS011;25635;51.146;17.162;2023-02-22T05:00:54;21.20;;;7.70;;
38805;SDS011;25635;51.146;17.162;2023-02-22T05:03:20;19.80;;;7.70;;
38805;SDS011;25635;51.146;17.162;2023-02-22T05:05:48;17.50;;;7.20;;
38805;SDS011;25635;51.146;17.162;2023-02-22T05:08:16;16.90;;;6.70;;
38805;SDS011;25635;51.146;17.162;2023-02-22T05:10:42;19.70;;;7.10;;
38805;SDS011;25635;51.146;17.162;2023-02-22T05:13:08;16.40;;;6.70;;
38805;SDS011;25635;51.146;17.162;2023-02-22T05:15:34;20.90;;;7.40;;
38805;SDS011;25635;51.146;17.162;2023-02-22T05:18:00;14.50;;;6.90;;
38805;SDS011;25635;51.146;17.162;2023-02-22T05:20:28;21.20;;;7.90;;
38805;SDS011;25635;51.146;17.162;2023-02-22T05:22:57;19.10;;;7.80;;
38805;SDS011;25635;51.146;17.162;2023-02-22T05:25:24;18.30;;;7.30;;
38805;SDS011;25635;51.146;17.162;2023-02-22T05:27:52;16.50;;;7.40;;
38805;SDS011;25635;51.146;17.162;2023-02-22T05:30:23;15.00;;;7.10;;
38805;SDS011;25635;51.146;17.162;2023-02-22T05:32:53;14.00;;;6.30;;
38805;SDS011;25635;51.146;17.162;2023-02-22T05:35:19;18.10;;;6.90;;
38805;SDS011;25635;51.146;17.162;2023-02-22T05:37:47;14.00;;;6.00;;
38805;SDS011;25635;51.146;17.162;2023-02-22T05:40:19;16.20;;;7.00;;
38805;SDS011;25635;51.146;17.162;2023-02-22T05:42:47;17.40;;;7.10;;
38805;SDS011;25635;51.146;17.162;2023-02-22T05:45:14;21.70;;;7.70;;
38805;SDS011;25635;51.146;17.162;2023-02-22T05:47:43;18.60;;;7.70;;
38805;SDS011;25635;51.146;17.162;2023-02-22T05:50:09;17.50;;;8.10;;
38805;SDS011;25635;51.146;17.162;2023-02-22T05:52:36;17.20;;;8.40;;
38805;SDS011;25635;51.146;17.162;2023-02-22T05:55:06;17.40;;;8.60;;
38805;SDS011;25635;51.146;17.162;2023-02-22T05:57:34;18.10;;;9.10;;
38805;SDS011;25635;51.146;17.162;2023-02-22T06:00:01;18.60;;;8.70;;
38805;SDS011;25635;51.146;17.162;2023-02-22T06:02:29;19.00;;;8.90;;
38805;SDS011;25635;51.146;17.162;2023-02-22T06:04:55;17.60;;;8.20;;
38805;SDS011;25635;51.146;17.162;2023-02-22T06:07:21;18.90;;;8.20;;
38805;SDS011;25635;51.146;17.162;2023-02-22T06:09:47;19.50;;;8.90;;
38805;SDS011;25635;51.146;17.162;2023-02-22T06:12:13;18.80;;;8.30;;
38805;SDS011;25635;51.146;17.162;2023-02-22T06:14:41;15.10;;;7.30;;
38805;SDS011;25635;51.146;17.162;2023-02-22T06:17:11;20.60;;;8.30;;
38805;SDS011;25635;51.146;17.162;2023-02-22T06:19:38;17.90;;;8.10;;
38805;SDS011;25635;51.146;17.162;2023-02-22T06:22:05;21.40;;;8.60;;
38805;SDS011;25635;51.146;17.162;2023-02-22T06:24:32;16.00;;;8.40;;
38805;SDS011;25635;51.146;17.162;2023-02-22T06:26:59;21.80;;;8.90;;
38805;SDS011;25635;51.146;17.162;2023-02-22T06:29:26;18.20;;;7.90;;
38805;SDS011;25635;51.146;17.162;2023-02-22T06:31:54;18.40;;;8.80;;
38805;SDS011;25635;51.146;17.162;2023-02-22T06:34:20;26.60;;;11.70;;
38805;SDS011;25635;51.146;17.162;2023-02-22T06:36:47;24.30;;;11.90;;
38805;SDS011;25635;51.146;17.162;2023-02-22T06:39:14;27.20;;;13.20;;
38805;SDS011;25635;51.146;17.162;2023-02-22T06:41:44;27.80;;;13.00;;
38805;SDS011;25635;51.146;17.162;2023-02-22T06:44:12;23.40;;;11.70;;
38805;SDS011;25635;51.146;17.162;2023-02-22T06:46:39;26.80;;;11.60;;
38805;SDS011;25635;51.146;17.162;2023-02-22T06:49:13;25.60;;;11.10;;
38805;SDS011;25635;51.146;17.162;2023-02-22T06:51:39;23.20;;;11.10;;
38805;SDS011;25635;51.146;17.162;2023-02-22T06:54:05;28.30;;;11.10;;
38805;SDS011;25635;51.146;17.162;2023-02-22T06:56:31;24.70;;;11.40;;
38805;SDS011;25635;51.146;17.162;2023-02-22T06:58:57;28.60;;;12.50;;
38805;SDS011;25635;51.146;17.162;2023-02-22T07:01:27;61.70;;;23.00;;
38805;SDS011;25635;51.146;17.162;2023-02-22T07:03:53;108.50;;;37.80;;
38805;SDS011;25635;51.146;17.162;2023-02-22T07:06:19;83.60;;;30.00;;
38805;SDS011;25635;51.146;17.162;2023-02-22T07:08:45;49.90;;;20.80;;
38805;SDS011;25635;51.146;17.162;2023-02-22T07:11:11;45.20;;;18.70;;
38805;SDS011;25635;51.146;17.162;2023-02-22T07:13:37;47.20;;;19.80;;
38805;SDS011;25635;51.146;17.162;2023-02-22T07:16:03;49.10;;;19.30;;
38805;SDS011;25635;51.146;17.162;2023-02-22T07:18:29;35.20;;;17.60;;
38805;SDS011;25635;51.146;17.162;2023-02-22T07:20:55;35.10;;;15.90;;
38805;SDS011;25635;51.146;17.162;2023-02-22T07:23:23;36.10;;;15.20;;
38805;SDS011;25635;51.146;17.162;2023-02-22T07:25:49;29.80;;;14.10;;
38805;SDS011;25635;51.146;17.162;2023-02-22T07:28:15;41.20;;;19.10;;
38805;SDS011;25635;51.146;17.162;2023-02-22T07:30:41;43.50;;;22.10;;
38805;SDS011;25635;51.146;17.162;2023-02-22T07:33:09;39.00;;;19.30;;
38805;SDS011;25635;51.146;17.162;2023-02-22T07:35:37;36.30;;;16.00;;
38805;SDS011;25635;51.146;17.162;2023-02-22T07:38:08;30.10;;;13.40;;
38805;SDS011;25635;51.146;17.162;2023-02-22T07:40:34;26.70;;;10.60;;
38805;SDS011;25635;51.146;17.162;2023-02-22T07:43:03;28.70;;;11.80;;
38805;SDS011;25635;51.146;17.162;2023-02-22T07:45:31;27.60;;;11.40;;
38805;SDS011;25635;51.146;17.162;2023-02-22T07:48:00;24.50;;;10.80;;
38805;SDS011;25635;51.146;17.162;2023-02-22T07:50:28;26.40;;;11.10;;
38805;SDS011;25635;51.146;17.162;2023-02-22T07:52:57;31.00;;;12.00;;
38805;SDS011;25635;51.146;17.162;2023-02-22T07:55:25;31.20;;;12.10;;
38805;SDS011;25635;51.146;17.162;2023-02-22T07:57:55;36.40;;;13.60;;
38805;SDS011;25635;51.146;17.162;2023-02-22T08:00:24;30.50;;;11.80;;
38805;SDS011;25635;51.146;17.162;2023-02-22T08:02:52;35.70;;;13.50;;
38805;SDS011;25635;51.146;17.162;2023-02-22T08:05:20;28.30;;;11.60;;
38805;SDS011;25635;51.146;17.162;2023-02-22T08:07:48;39.70;;;13.00;;
38805;SDS011;25635;51.146;17.162;2023-02-22T08:10:14;36.40;;;11.90;;
38805;SDS011;25635;51.146;17.162;2023-02-22T08:12:41;30.30;;;10.00;;
38805;SDS011;25635;51.146;17.162;2023-02-22T08:15:08;27.00;;;9.30;;
38805;SDS011;25635;51.146;17.162;2023-02-22T08:17:41;26.30;;;8.80;;
38805;SDS011;25635;51.146;17.162;2023-02-22T08:20:07;23.90;;;8.10;;
38805;SDS011;25635;51.146;17.162;2023-02-22T08:22:34;23.80;;;8.90;;
38805;SDS011;25635;51.146;17.162;2023-02-22T08:25:00;24.10;;;7.70;;
38805;SDS011;25635;51.146;17.162;2023-02-22T08:27:26;31.20;;;6.60;;
38805;SDS011;25635;51.146;17.162;2023-02-22T08:29:54;26.20;;;7.30;;
38805;SDS011;25635;51.146;17.162;2023-02-22T08:32:21;23.90;;;7.90;;
38805;SDS011;25635;51.146;17.162;2023-02-22T08:34:47;23.60;;;8.10;;
38805;SDS011;25635;51.146;17.162;2023-02-22T08:37:14;22.50;;;6.60;;
38805;SDS011;25635;51.146;17.162;2023-02-22T08:39:41;19.80;;;7.30;;
38805;SDS011;25635;51.146;17.162;2023-02-22T08:42:07;21.10;;;5.90;;
38805;SDS011;25635;51.146;17.162;2023-02-22T08:44:37;17.60;;;6.50;;
38805;SDS011;25635;51.146;17.162;2023-02-22T08:47:04;23.40;;;5.70;;
38805;SDS011;25635;51.146;17.162;2023-02-22T08:49:30;22.60;;;5.50;;
38805;SDS011;25635;51.146;17.162;2023-02-22T08:51:56;19.80;;;5.60;;
38805;SDS011;25635;51.146;17.162;2023-02-22T08:54:22;25.50;;;6.40;;
38805;SDS011;25635;51.146;17.162;2023-02-22T08:56:48;23.10;;;5.90;;
38805;SDS011;25635;51.146;17.162;2023-02-22T08:59:15;19.60;;;5.60;;
38805;SDS011;25635;51.146;17.162;2023-02-22T09:01:42;24.50;;;6.00;;
38805;SDS011;25635;51.146;17.162;2023-02-22T09:04:07;22.80;;;6.50;;
38805;SDS011;25635;51.146;17.162;2023-02-22T09:06:34;21.40;;;5.90;;
38805;SDS011;25635;51.146;17.162;2023-02-22T09:09:00;17.10;;;5.70;;
38805;SDS011;25635;51.146;17.162;2023-02-22T09:11:27;19.90;;;5.70;;
38805;SDS011;25635;51.146;17.162;2023-02-22T09:13:53;17.00;;;5.90;;
38805;SDS011;25635;51.146;17.162;2023-02-22T09:16:19;20.70;;;6.30;;
38805;SDS011;25635;51.146;17.162;2023-02-22T09:18:44;19.80;;;7.10;;
38805;SDS011;25635;51.146;17.162;2023-02-22T09:21:12;21.90;;;7.40;;
38805;SDS011;25635;51.146;17.162;2023-02-22T09:23:39;28.50;;;8.00;;
38805;SDS011;25635;51.146;17.162;2023-02-22T09:26:09;24.00;;;8.00;;
38805;SDS011;25635;51.146;17.162;2023-02-22T09:28:35;21.40;;;6.50;;
38805;SDS011;25635;51.146;17.162;2023-02-22T09:31:01;27.40;;;7.60;;
38805;SDS011;25635;51.146;17.162;2023-02-22T09:33:27;24.80;;;5.90;;
38805;SDS011;25635;51.146;17.162;2023-02-22T09:35:53;20.90;;;6.60;;
38805;SDS011;25635;51.146;17.162;2023-02-22T09:38:21;22.90;;;5.60;;
38805;SDS011;25635;51.146;17.162;2023-02-22T09:40:51;23.20;;;6.10;;
38805;SDS011;25635;51.146;17.162;2023-02-22T09:48:53;23.80;;;6.60;;
38805;SDS011;25635;51.146;17.162;2023-02-22T09:51:26;23.00;;;6.00;;
38805;SDS011;25635;51.146;17.162;2023-02-22T09:56:28;18.30;;;5.30;;
38805;SDS011;25635;51.146;17.162;2023-02-22T09:58:59;18.30;;;5.00;;
38805;SDS011;25635;51.146;17.162;2023-02-22T10:01:32;19.30;;;6.40;;
38805;SDS011;25635;51.146;17.162;2023-02-22T10:06:36;18.30;;;6.20;;
38805;SDS011;25635;51.146;17.162;2023-02-22T10:09:08;24.60;;;6.40;;
38805;SDS011;25635;51.146;17.162;2023-02-22T10:14:36;23.50;;;5.30;;
38805;SDS011;25635;51.146;17.162;2023-02-22T10:17:14;26.00;;;5.30;;
38805;SDS011;25635;51.146;17.162;2023-02-22T10:19:46;20.40;;;4.60;;
38805;SDS011;25635;51.146;17.162;2023-02-22T10:25:27;22.60;;;5.70;;
38805;SDS011;25635;51.146;17.162;2023-02-22T10:28:01;23.00;;;5.40;;
38805;SDS011;25635;51.146;17.162;2023-02-22T10:30:38;13.70;;;4.10;;
38805;SDS011;25635;51.146;17.162;2023-02-22T10:33:12;11.70;;;2.70;;
38805;SDS011;25635;51.146;17.162;2023-02-22T10:35:41;13.30;;;2.70;;
38805;SDS011;25635;51.146;17.162;2023-02-22T10:38:11;10.00;;;3.00;;
38805;SDS011;25635;51.146;17.162;2023-02-22T10:41:26;17.20;;;3.30;;
38805;SDS011;25635;51.146;17.162;2023-02-22T10:43:33;17.40;;;3.30;;
38805;SDS011;25635;51.146;17.162;2023-02-22T10:46:03;14.60;;;3.50;;
38805;SDS011;25635;51.146;17.162;2023-02-22T10:48:31;17.10;;;3.30;;
38805;SDS011;25635;51.146;17.162;2023-02-22T10:51:04;15.40;;;3.70;;
38805;SDS011;25635;51.146;17.162;2023-02-22T10:53:33;15.80;;;3.80;;
38805;SDS011;25635;51.146;17.162;2023-02-22T10:56:11;12.30;;;3.40;;
38805;SDS011;25635;51.146;17.162;2023-02-22T10:58:49;15.30;;;3.50;;
38805;SDS011;25635;51.146;17.162;2023-02-22T11:06:45;16.90;;;3.50;;
38805;SDS011;25635;51.146;17.162;2023-02-22T11:09:17;17.20;;;3.30;;
38805;SDS011;25635;51.146;17.162;2023-02-22T11:11:47;15.90;;;3.30;;
38805;SDS011;25635;51.146;17.162;2023-02-22T11:14:27;12.60;;;3.40;;
38805;SDS011;25635;51.146;17.162;2023-02-22T11:16:55;11.10;;;2.80;;
38805;SDS011;25635;51.146;17.162;2023-02-22T11:19:24;12.50;;;3.40;;
38805;SDS011;25635;51.146;17.162;2023-02-22T11:21:56;16.70;;;3.70;;
38805;SDS011;25635;51.146;17.162;2023-02-22T11:24:43;16.00;;;3.40;;
38805;SDS011;25635;51.146;17.162;2023-02-22T11:27:19;13.10;;;3.60;;
38805;SDS011;25635;51.146;17.162;2023-02-22T11:32:41;12.00;;;3.10;;
38805;SDS011;25635;51.146;17.162;2023-02-22T11:37:43;15.80;;;3.60;;
38805;SDS011;25635;51.146;17.162;2023-02-22T11:42:45;15.70;;;3.70;;
38805;SDS011;25635;51.146;17.162;2023-02-22T11:45:14;12.60;;;3.20;;
38805;SDS011;25635;51.146;17.162;2023-02-22T11:47:49;17.50;;;3.60;;
38805;SDS011;25635;51.146;17.162;2023-02-22T11:50:28;11.90;;;3.70;;
38805;SDS011;25635;51.146;17.162;2023-02-22T11:56:12;10.40;;;3.00;;
38805;SDS011;25635;51.146;17.162;2023-02-22T12:01:17;19.80;;;3.50;;
38805;SDS011;25635;51.146;17.162;2023-02-22T12:04:17;12.30;;;3.10;;
38805;SDS011;25635;51.146;17.162;2023-02-22T12:12:50;12.20;;;2.90;;
38805;SDS011;25635;51.146;17.162;2023-02-22T12:15:41;13.50;;;3.60;;
38805;SDS011;25635;51.146;17.162;2023-02-22T12:21:01;14.60;;;3.40;;
38805;SDS011;25635;51.146;17.162;2023-02-22T12:23:35;12.90;;;3.60;;
38805;SDS011;25635;51.146;17.162;2023-02-22T12:26:09;12.50;;;3.80;;
38805;SDS011;25635;51.146;17.162;2023-02-22T12:29:03;11.80;;;3.20;;
38805;SDS011;25635;51.146;17.162;2023-02-22T12:31:49;14.00;;;3.50;;
38805;SDS011;25635;51.146;17.162;2023-02-22T12:40:02;13.60;;;2.90;;
38805;SDS011;25635;51.146;17.162;2023-02-22T12:45:16;12.60;;;3.30;;
38805;SDS011;25635;51.146;17.162;2023-02-22T12:50:34;12.20;;;3.60;;
38805;SDS011;25635;51.146;17.162;2023-02-22T12:53:11;14.20;;;3.40;;
38805;SDS011;25635;51.146;17.162;2023-02-22T12:55:55;14.40;;;3.30;;
38805;SDS011;25635;51.146;17.162;2023-02-22T12:58:32;14.00;;;3.50;;
38805;SDS011;25635;51.146;17.162;2023-02-22T13:01:05;13.20;;;3.20;;
38805;SDS011;25635;51.146;17.162;2023-02-22T13:03:38;11.40;;;3.80;;
38805;SDS011;25635;51.146;17.162;2023-02-22T13:09:04;14.80;;;5.40;;
38805;SDS011;25635;51.146;17.162;2023-02-22T13:20:27;15.40;;;3.70;;
38805;SDS011;25635;51.146;17.162;2023-02-22T13:23:10;12.20;;;2.90;;
38805;SDS011;25635;51.146;17.162;2023-02-22T13:29:09;13.10;;;3.50;;
38805;SDS011;25635;51.146;17.162;2023-02-22T13:53:54;13.20;;;3.10;;
38805;SDS011;25635;51.146;17.162;2023-02-22T13:56:43;14.80;;;3.80;;
38805;SDS011;25635;51.146;17.162;2023-02-22T13:59:20;11.00;;;3.00;;
38805;SDS011;25635;51.146;17.162;2023-02-22T14:02:04;14.60;;;3.70;;
38805;SDS011;25635;51.146;17.162;2023-02-22T14:04:36;15.00;;;3.80;;
38805;SDS011;25635;51.146;17.162;2023-02-22T14:09:54;12.90;;;3.20;;
38805;SDS011;25635;51.146;17.162;2023-02-22T14:20:34;14.50;;;4.20;;
38805;SDS011;25635;51.146;17.162;2023-02-22T14:28:47;14.90;;;2.90;;
38805;SDS011;25635;51.146;17.162;2023-02-22T14:31:16;12.10;;;2.90;;
38805;SDS011;25635;51.146;17.162;2023-02-22T14:36:23;10.80;;;2.80;;
38805;SDS011;25635;51.146;17.162;2023-02-22T14:39:02;14.80;;;2.50;;
38805;SDS011;25635;51.146;17.162;2023-02-22T14:41:33;11.60;;;2.80;;
38805;SDS011;25635;51.146;17.162;2023-02-22T14:44:02;10.70;;;2.70;;
38805;SDS011;25635;51.146;17.162;2023-02-22T14:46:31;12.60;;;3.50;;
38805;SDS011;25635;51.146;17.162;2023-02-22T14:49:02;9.90;;;2.70;;
38805;SDS011;25635;51.146;17.162;2023-02-22T14:51:39;12.10;;;3.10;;
38805;SDS011;25635;51.146;17.162;2023-02-22T14:54:14;12.30;;;3.00;;
38805;SDS011;25635;51.146;17.162;2023-02-22T14:59:45;11.30;;;2.80;;
38805;SDS011;25635;51.146;17.162;2023-02-22T15:02:17;11.20;;;3.60;;
38805;SDS011;25635;51.146;17.162;2023-02-22T15:04:51;12.30;;;2.80;;
38805;SDS011;25635;51.146;17.162;2023-02-22T15:07:20;10.90;;;2.50;;
38805;SDS011;25635;51.146;17.162;2023-02-22T15:10:05;10.70;;;2.70;;
38805;SDS011;25635;51.146;17.162;2023-02-22T15:12:51;13.20;;;3.20;;
38805;SDS011;25635;51.146;17.162;2023-02-22T15:15:34;12.90;;;2.90;;
38805;SDS011;25635;51.146;17.162;2023-02-22T15:18:17;14.80;;;3.20;;
38805;SDS011;25635;51.146;17.162;2023-02-22T15:21:06;13.30;;;2.80;;
38805;SDS011;25635;51.146;17.162;2023-02-22T15:23:40;12.50;;;2.90;;
38805;SDS011;25635;51.146;17.162;2023-02-22T15:26:15;12.40;;;3.80;;
38805;SDS011;25635;51.146;17.162;2023-02-22T15:28:41;11.70;;;3.50;;
38805;SDS011;25635;51.146;17.162;2023-02-22T15:31:25;14.90;;;4.40;;
38805;SDS011;25635;51.146;17.162;2023-02-22T15:33:56;12.80;;;4.00;;
38805;SDS011;25635;51.146;17.162;2023-02-22T15:36:27;15.40;;;3.90;;
38805;SDS011;25635;51.146;17.162;2023-02-22T15:38:55;13.70;;;3.70;;
38805;SDS011;25635;51.146;17.162;2023-02-22T15:41:23;14.00;;;3.80;;
38805;SDS011;25635;51.146;17.162;2023-02-22T15:43:57;16.40;;;4.50;;
38805;SDS011;25635;51.146;17.162;2023-02-22T15:46:31;15.40;;;4.40;;
38805;SDS011;25635;51.146;17.162;2023-02-22T15:49:06;15.00;;;4.90;;
38805;SDS011;25635;51.146;17.162;2023-02-22T15:51:33;13.90;;;3.80;;
38805;SDS011;25635;51.146;17.162;2023-02-22T15:54:01;15.30;;;4.30;;
38805;SDS011;25635;51.146;17.162;2023-02-22T15:56:34;15.80;;;4.20;;
38805;SDS011;25635;51.146;17.162;2023-02-22T15:59:08;19.20;;;5.50;;
38805;SDS011;25635;51.146;17.162;2023-02-22T16:01:38;16.10;;;4.70;;
38805;SDS011;25635;51.146;17.162;2023-02-22T16:04:06;17.50;;;5.60;;
38805;SDS011;25635;51.146;17.162;2023-02-22T16:07:01;15.10;;;4.80;;
38805;SDS011;25635;51.146;17.162;2023-02-22T16:09:31;16.40;;;4.70;;
38805;SDS011;25635;51.146;17.162;2023-02-22T16:14:46;13.30;;;5.20;;
38805;SDS011;25635;51.146;17.162;2023-02-22T16:19:56;18.20;;;6.30;;
38805;SDS011;25635;51.146;17.162;2023-02-22T16:24:53;14.50;;;6.70;;
38805;SDS011;25635;51.146;17.162;2023-02-22T16:27:40;17.10;;;7.60;;
38805;SDS011;25635;51.146;17.162;2023-02-22T16:30:31;20.90;;;9.50;;
38805;SDS011;25635;51.146;17.162;2023-02-22T16:33:01;22.30;;;7.60;;
38805;SDS011;25635;51.146;17.162;2023-02-22T16:35:30;19.60;;;8.30;;
38805;SDS011;25635;51.146;17.162;2023-02-22T16:38:04;21.00;;;8.10;;
38805;SDS011;25635;51.146;17.162;2023-02-22T16:40:33;22.40;;;9.50;;
38805;SDS011;25635;51.146;17.162;2023-02-22T16:43:09;23.60;;;9.20;;
38805;SDS011;25635;51.146;17.162;2023-02-22T16:45:38;22.00;;;9.00;;
38805;SDS011;25635;51.146;17.162;2023-02-22T16:48:14;23.00;;;10.70;;
38805;SDS011;25635;51.146;17.162;2023-02-22T16:50:43;19.30;;;9.00;;
38805;SDS011;25635;51.146;17.162;2023-02-22T16:53:11;18.00;;;8.00;;
38805;SDS011;25635;51.146;17.162;2023-02-22T16:55:37;16.10;;;5.90;;
38805;SDS011;25635;51.146;17.162;2023-02-22T16:58:03;18.60;;;6.20;;
38805;SDS011;25635;51.146;17.162;2023-02-22T17:00:29;16.50;;;7.50;;
38805;SDS011;25635;51.146;17.162;2023-02-22T17:03:02;20.60;;;8.00;;
38805;SDS011;25635;51.146;17.162;2023-02-22T17:05:30;18.60;;;8.50;;
38805;SDS011;25635;51.146;17.162;2023-02-22T17:08:01;19.60;;;8.80;;
38805;SDS011;25635;51.146;17.162;2023-02-22T17:10:30;22.70;;;11.20;;
38805;SDS011;25635;51.146;17.162;2023-02-22T17:12:56;22.80;;;12.00;;
38805;SDS011;25635;51.146;17.162;2023-02-22T17:15:25;23.60;;;11.80;;
38805;SDS011;25635;51.146;17.162;2023-02-22T17:17:53;23.00;;;10.10;;
38805;SDS011;25635;51.146;17.162;2023-02-22T17:20:21;19.40;;;8.40;;